Time;durP1;ratioP1;P1;durP2;ratioP2;P2;SDS_P1;SDS_P2;PMS_P1;PMS_P2;Temp;Humidity;BMP_temperature;BMP_pressure;BME280_temperature;BME280_humidity;BME280_pressure;Samples;Min_cycle;Max_cycle;Signal;HPM_P1;HPM_P2
2022/01/14 00:01:42;;;;;;;9.48;7.05;;;;;;;0.54;83.81;99847.78;1698171;84;21509;-76
2022/01/14 00:04:09;;;;;;;10.15;7.85;;;;;;;0.55;83.75;99850.75;1699994;83;21328;-76
2022/01/14 00:06:37;;;;;;;10.80;7.97;;;;;;;0.58;83.73;99843.30;1692245;84;21427;-76
2022/01/14 00:09:08;;;;;;;8.88;6.42;;;;;;;0.60;83.68;99849.26;1695688;83;23028;-76
2022/01/14 00:11:36;;;;;;;8.50;6.05;;;;;;;0.62;83.67;99832.29;1701026;84;21084;-75
2022/01/14 00:16:32;;;;;;;8.08;6.60;;;;;;;0.68;83.69;99829.41;1690625;84;20972;-76
2022/01/14 00:18:59;;;;;;;7.28;5.67;;;;;;;0.70;83.62;99832.77;1676739;84;21440;-76
2022/01/14 00:21:27;;;;;;;6.95;5.33;;;;;;;0.71;83.60;99833.16;1685362;84;21835;-76
2022/01/14 00:24:05;;;;;;;7.55;5.72;;;;;;;0.74;83.65;99840.34;1687355;84;21049;-76
2022/01/14 00:31:57;;;;;;;6.53;5.70;;;;;;;0.82;83.50;99836.08;1694617;83;21422;-75
2022/01/14 00:34:20;;;;;;;7.35;5.20;;;;;;;0.83;83.44;99831.27;1684252;83;21825;-75
2022/01/14 00:36:48;;;;;;;6.47;5.37;;;;;;;0.85;83.44;99835.47;1686733;85;20992;-75
2022/01/14 00:39:15;;;;;;;8.63;5.70;;;;;;;0.88;83.40;99834.95;1689624;85;21009;-76
2022/01/14 00:41:41;;;;;;;7.03;5.00;;;;;;;0.89;83.37;99828.38;1689725;84;20968;-76
2022/01/14 00:44:15;;;;;;;7.90;5.50;;;;;;;0.90;83.34;99818.36;1689660;85;21009;-76
2022/01/14 00:46:44;;;;;;;6.53;5.37;;;;;;;0.91;83.33;99808.34;1699995;84;21869;-77
2022/01/14 00:49:11;;;;;;;6.60;5.35;;;;;;;0.94;83.28;99808.64;1692024;84;20957;-75
2022/01/14 00:51:37;;;;;;;6.28;5.00;;;;;;;0.93;83.25;99801.30;1688405;83;21479;-75
2022/01/14 00:54:05;;;;;;;5.95;4.87;;;;;;;0.96;83.26;99804.20;1699184;83;21458;-76
2022/01/14 00:59:16;;;;;;;9.73;5.70;;;;;;;0.99;83.23;99807.51;1681272;84;21873;-76
2022/01/14 01:01:50;;;;;;;6.83;5.05;;;;;;;1.01;83.23;99802.23;1669493;84;21480;-76
2022/01/14 01:04:22;;;;;;;6.17;4.87;;;;;;;1.04;83.22;99796.86;1689586;84;21027;-76
2022/01/14 01:06:49;;;;;;;5.35;4.60;;;;;;;1.06;83.18;99793.30;1681486;84;21017;-76
2022/01/14 01:09:16;;;;;;;5.83;4.85;;;;;;;1.07;83.14;99785.03;1660757;84;21083;-75
2022/01/14 01:11:53;;;;;;;6.85;4.42;;;;;;;1.10;83.10;99785.71;1671094;84;21845;-75
2022/01/14 01:14:25;;;;;;;5.92;5.00;;;;;;;1.11;83.12;99781.34;1689244;84;21016;-75
2022/01/14 01:16:48;;;;;;;4.97;4.22;;;;;;;1.12;83.11;99766.97;1683146;83;21031;-76
2022/01/14 01:19:16;;;;;;;4.87;4.30;;;;;;;1.16;83.05;99766.37;1680821;85;21048;-75
2022/01/14 01:21:42;;;;;;;5.17;4.20;;;;;;;1.15;83.02;99764.66;1681376;84;21611;-75
2022/01/14 01:24:10;;;;;;;5.80;4.45;;;;;;;1.17;82.99;99763.30;1689229;84;21756;-76
2022/01/14 01:26:39;;;;;;;5.25;4.20;;;;;;;1.18;82.96;99764.98;1682455;84;21048;-75
2022/01/14 01:31:41;;;;;;;5.35;4.30;;;;;;;1.21;82.91;99767.42;1639356;86;21008;-76
2022/01/14 01:34:11;;;;;;;5.10;4.20;;;;;;;1.24;82.88;99768.55;1681673;83;20965;-76
2022/01/14 01:36:40;;;;;;;4.70;4.15;;;;;;;1.25;82.84;99763.73;1666582;84;22520;-73
2022/01/14 01:39:13;;;;;;;5.55;3.85;;;;;;;1.27;82.80;99762.76;1678882;83;20953;-74
2022/01/14 01:41:43;;;;;;;5.10;4.12;;;;;;;1.25;82.75;99767.17;1673743;83;20995;-75
2022/01/14 01:44:10;;;;;;;6.60;4.20;;;;;;;1.28;82.73;99766.20;1688377;84;21384;-76
2022/01/14 01:46:40;;;;;;;4.42;3.85;;;;;;;1.29;82.71;99753.57;1691925;83;20980;-76
2022/01/14 01:49:08;;;;;;;4.60;4.10;;;;;;;1.31;82.66;99737.41;1692103;84;21830;-76
2022/01/14 01:51:34;;;;;;;5.25;4.20;;;;;;;1.33;82.62;99726.46;1673013;84;21028;-75
2022/01/14 01:54:01;;;;;;;4.83;3.52;;;;;;;1.34;82.57;99722.94;1670770;83;21095;-76
2022/01/14 01:56:27;;;;;;;4.58;4.08;;;;;;;1.36;82.54;99706.81;1689732;83;21491;-74
2022/01/14 01:58:56;;;;;;;4.85;3.90;;;;;;;1.35;82.46;99699.47;1691660;83;21531;-76
2022/01/14 02:01:24;;;;;;;4.37;3.98;;;;;;;1.37;82.42;99693.72;1681586;84;21766;-76
2022/01/14 02:03:52;;;;;;;5.83;4.60;;;;;;;1.38;82.37;99693.25;1690106;84;20965;-76
2022/01/14 02:06:20;;;;;;;4.80;4.28;;;;;;;1.37;82.32;99686.38;1685064;84;21355;-76
2022/01/14 02:08:49;;;;;;;49.88;31.17;;;;;;;1.38;82.32;99675.05;1691831;84;20973;-76
2022/01/14 02:11:17;;;;;;;5.15;4.45;;;;;;;1.39;82.27;99674.95;1691932;84;21048;-76
2022/01/14 02:13:44;;;;;;;5.45;4.20;;;;;;;1.41;82.22;99669.66;1690245;84;22489;-75
2022/01/14 02:16:20;;;;;;;4.25;3.45;;;;;;;1.41;82.18;99659.26;1689842;84;21059;-76
2022/01/14 02:19:10;;;;;;;17.70;12.90;;;;;;;1.42;82.10;99656.57;1667817;84;21554;-75
2022/01/14 02:26:49;;;;;;;4.50;3.80;;;;;;;1.47;82.03;99634.22;1686762;84;21902;-77
2022/01/14 02:29:15;;;;;;;4.25;3.52;;;;;;;1.47;81.96;99630.31;1685491;84;21024;-75
2022/01/14 02:31:42;;;;;;;4.08;3.67;;;;;;;1.49;81.93;99635.44;1667673;84;21459;-76
2022/01/14 02:34:10;;;;;;;10.15;7.80;;;;;;;1.49;81.85;99618.52;1669516;83;21040;-76
2022/01/14 02:36:38;;;;;;;6.35;4.92;;;;;;;1.50;81.80;99615.83;1691705;83;21016;-76
2022/01/14 02:39:05;;;;;;;4.12;3.50;;;;;;;1.49;81.74;99614.62;1626406;86;21923;-76
2022/01/14 02:41:35;;;;;;;4.85;4.37;;;;;;;1.50;81.70;99614.53;1683108;84;21357;-75
2022/01/14 02:44:06;;;;;;;4.10;3.37;;;;;;;1.50;81.69;99608.02;1691002;83;20996;-76
2022/01/14 02:46:38;;;;;;;3.75;3.30;;;;;;;1.50;81.59;99596.31;1701333;83;21047;-77
2022/01/14 02:49:01;;;;;;;4.17;3.47;;;;;;;1.52;81.58;99602.27;1698625;83;20981;-76
2022/01/14 02:51:27;;;;;;;7.45;6.10;;;;;;;1.52;81.51;99597.52;1682949;83;21436;-76
2022/01/14 02:54:09;;;;;;;3.90;3.50;;;;;;;1.51;81.47;99600.59;1693004;84;21003;-76
2022/01/14 02:56:30;;;;;;;6.53;4.22;;;;;;;1.54;81.46;99595.67;1696132;83;21060;-75
2022/01/14 02:58:59;;;;;;;3.08;2.77;;;;;;;1.55;81.40;99593.48;1663932;84;21103;-76
2022/01/14 03:01:26;;;;;;;3.67;2.95;;;;;;;1.55;81.33;99586.97;1679998;84;21016;-76
2022/01/14 03:03:57;;;;;;;4.40;3.10;;;;;;;1.55;81.27;99576.09;1684097;85;21853;-76
2022/01/14 03:06:25;;;;;;;3.60;3.17;;;;;;;1.55;81.21;99569.59;1689304;84;21024;-75
2022/01/14 03:08:52;;;;;;;3.87;2.98;;;;;;;1.56;81.18;99579.07;1684415;83;21008;-76
2022/01/14 03:11:37;;;;;;;3.55;2.67;;;;;;;1.59;81.15;99583.27;1685852;84;21182;-76
2022/01/14 03:14:03;;;;;;;2.90;2.60;;;;;;;1.60;81.09;99574.52;1690112;84;21111;-75
2022/01/14 03:16:37;;;;;;;3.72;2.67;;;;;;;1.60;81.03;99581.03;1686655;83;21846;-76
2022/01/14 03:19:06;;;;;;;4.90;3.22;;;;;;;1.60;80.97;99577.97;1678068;84;21423;-75
2022/01/14 03:21:29;;;;;;;3.50;2.75;;;;;;;1.62;80.95;99586.52;1694199;84;21019;-75
2022/01/14 03:26:41;;;;;;;2.87;2.45;;;;;;;1.63;80.83;99582.99;1688879;84;20968;-76
2022/01/14 03:29:07;;;;;;;3.17;2.40;;;;;;;1.65;80.77;99580.33;1700045;84;21829;-77
2022/01/14 03:31:34;;;;;;;3.58;2.30;;;;;;;1.65;80.72;99579.03;1675255;84;21610;-75
2022/01/14 03:34:00;;;;;;;2.92;2.42;;;;;;;1.68;80.69;99578.85;1683772;84;21433;-75
2022/01/14 03:36:27;;;;;;;3.15;2.40;;;;;;;1.69;80.67;99572.72;1681920;84;21487;-76
2022/01/14 03:38:55;;;;;;;3.05;2.75;;;;;;;1.71;80.59;99570.39;1689819;84;21434;-76
2022/01/14 03:41:21;;;;;;;3.60;2.42;;;;;;;1.70;80.56;99570.02;1686062;84;21861;-76
2022/01/14 03:43:48;;;;;;;3.40;2.47;;;;;;;1.72;80.50;99565.56;1690670;84;21399;-76
2022/01/14 03:46:14;;;;;;;2.90;2.50;;;;;;;1.74;80.48;99544.67;1691488;84;21067;-76
2022/01/14 03:48:41;;;;;;;2.80;2.20;;;;;;;1.74;80.43;99539.47;1688140;84;20977;-77
2022/01/14 03:51:08;;;;;;;3.05;2.50;;;;;;;1.76;80.41;99541.52;1672524;83;20966;-75
2022/01/14 03:53:34;;;;;;;3.20;2.35;;;;;;;1.76;80.34;99518.55;1678791;84;22651;-77
2022/01/14 03:56:04;;;;;;;3.30;2.77;;;;;;;1.76;80.33;99512.05;1687050;83;20993;-76
2022/01/14 03:58:30;;;;;;;2.85;2.27;;;;;;;1.77;80.31;99501.53;1692389;84;20972;-76
2022/01/14 04:00:56;;;;;;;3.85;2.50;;;;;;;1.78;80.25;99502.38;1686348;84;21080;-76
2022/01/14 04:03:23;;;;;;;3.20;2.60;;;;;;;1.78;80.18;99487.59;1670225;84;20982;-76
2022/01/14 04:05:49;;;;;;;3.30;2.60;;;;;;;1.78;80.19;99484.98;1685205;83;22197;-75
2022/01/14 04:08:16;;;;;;;2.90;2.35;;;;;;;1.79;80.16;99487.12;1686628;83;20931;-76
2022/01/14 04:10:42;;;;;;;2.98;2.40;;;;;;;1.79;80.16;99487.96;1667054;86;20976;-77
2022/01/14 04:13:16;;;;;;;3.08;2.37;;;;;;;1.80;80.18;99474.48;1692729;84;21475;-76
2022/01/14 04:15:43;;;;;;;3.72;2.70;;;;;;;1.80;80.13;99479.69;1693906;84;21019;-75
2022/01/14 04:18:15;;;;;;;3.30;2.40;;;;;;;1.81;80.14;99465.73;1693115;84;21830;-76
2022/01/14 04:20:43;;;;;;;2.15;1.95;;;;;;;1.81;80.15;99464.44;1685726;84;21376;-77
2022/01/14 04:23:13;;;;;;;3.05;2.45;;;;;;;1.83;80.12;99454.77;1693200;84;21003;-76
2022/01/14 04:25:40;;;;;;;2.77;2.37;;;;;;;1.83;80.09;99459.97;1694992;83;21008;-76
2022/01/14 04:28:09;;;;;;;3.37;2.55;;;;;;;1.86;80.10;99446.80;1685248;84;21546;-76
2022/01/14 04:30:36;;;;;;;2.90;2.30;;;;;;;1.88;80.04;99440.56;1685748;84;21840;-75
2022/01/14 04:33:04;;;;;;;3.05;2.50;;;;;;;1.90;80.00;99436.56;1667608;84;21039;-76
2022/01/14 04:35:32;;;;;;;2.83;2.30;;;;;;;1.90;79.96;99435.26;1683628;83;21173;-77
2022/01/14 04:37:59;;;;;;;2.83;2.33;;;;;;;1.91;79.95;99435.16;1681030;84;21028;-76
2022/01/14 04:40:26;;;;;;;4.03;3.20;;;;;;;1.92;79.91;99426.89;1661559;83;21044;-76
2022/01/14 04:42:53;;;;;;;4.20;2.65;;;;;;;1.94;80.00;99431.56;1691807;84;23116;-76
2022/01/14 04:48:04;;;;;;;5.87;4.35;;;;;;;1.96;80.02;99424.49;1692082;83;21000;-76
2022/01/14 04:50:31;;;;;;;5.67;3.40;;;;;;;1.96;79.90;99428.40;1687049;84;20980;-76
2022/01/14 04:52:57;;;;;;;5.53;4.22;;;;;;;1.98;79.89;99427.84;1688488;84;21080;-76
2022/01/14 04:55:25;;;;;;;4.67;3.52;;;;;;;1.97;79.84;99422.27;1671981;84;21836;-75
2022/01/14 04:57:53;;;;;;;3.95;3.22;;;;;;;1.98;79.82;99418.26;1692313;83;20961;-75
2022/01/14 05:00:22;;;;;;;3.65;3.00;;;;;;;1.99;79.79;99428.21;1683956;83;21344;-76
2022/01/14 05:02:52;;;;;;;3.85;3.00;;;;;;;2.00;79.77;99407.74;1673871;83;21016;-74
2022/01/14 05:05:20;;;;;;;3.10;2.80;;;;;;;2.02;79.79;99398.06;1690132;84;21122;-72
2022/01/14 05:07:47;;;;;;;3.47;2.77;;;;;;;2.03;79.77;99397.59;1685245;84;21829;-76
2022/01/14 05:10:22;;;;;;;4.33;3.47;;;;;;;2.02;79.79;99390.25;1697962;83;21043;-76
2022/01/14 05:12:45;;;;;;;4.60;3.37;;;;;;;2.04;79.81;99390.19;1710490;83;21024;-75
2022/01/14 05:15:15;;;;;;;3.90;3.00;;;;;;;2.04;79.82;99391.49;1686761;84;21001;-74
2022/01/14 05:17:42;;;;;;;4.17;3.17;;;;;;;2.03;79.86;99380.23;1689545;85;20976;-76
2022/01/14 05:20:10;;;;;;;4.42;2.85;;;;;;;2.03;79.86;99380.23;1678064;85;21823;-78
2022/01/14 05:22:36;;;;;;;4.83;3.30;;;;;;;2.04;79.94;99382.38;1687429;83;21080;-77
2022/01/14 05:25:05;;;;;;;3.30;2.90;;;;;;;2.03;79.98;99389.35;1686571;85;21060;-78
2022/01/14 05:27:32;;;;;;;4.10;3.25;;;;;;;2.03;80.05;99398.47;1689608;85;20995;-77
2022/01/14 05:29:59;;;;;;;4.60;3.67;;;;;;;2.03;80.26;99397.59;1687763;85;21367;-77
2022/01/14 05:32:27;;;;;;;4.30;3.58;;;;;;;2.05;80.25;99392.70;1677770;85;21901;-73
2022/01/14 05:34:53;;;;;;;4.53;3.40;;;;;;;2.06;80.27;99391.77;1690815;84;21060;-76
2022/01/14 05:37:19;;;;;;;4.50;3.62;;;;;;;2.06;80.29;99390.92;1679352;84;21339;-76
2022/01/14 05:39:46;;;;;;;4.08;3.22;;;;;;;2.04;80.36;99371.49;1668788;83;21068;-76
2022/01/14 05:42:12;;;;;;;13.10;5.50;;;;;;;2.04;80.42;99371.49;1683843;83;20965;-76
2022/01/14 05:44:39;;;;;;;4.25;3.25;;;;;;;2.06;80.51;99360.51;1699748;84;21376;-76
2022/01/14 05:47:05;;;;;;;4.12;2.95;;;;;;;2.07;80.57;99365.25;1691965;84;21012;-76
2022/01/14 05:49:32;;;;;;;3.33;2.77;;;;;;;2.06;80.63;99359.20;1663351;84;21020;-76
2022/01/14 05:51:58;;;;;;;4.42;3.42;;;;;;;2.07;80.79;99354.83;1694182;84;20976;-74
2022/01/14 05:54:25;;;;;;;6.05;3.72;;;;;;;2.10;80.81;99350.27;1692372;83;21063;-75
2022/01/14 05:56:52;;;;;;;6.65;4.00;;;;;;;2.12;80.85;99339.74;1699725;83;23103;-75
2022/01/14 05:59:18;;;;;;;7.08;4.40;;;;;;;2.14;80.79;99334.84;1669438;86;20964;-75
2022/01/14 06:01:45;;;;;;;5.70;3.85;;;;;;;2.14;80.77;99327.02;1698319;83;21017;-75
2022/01/14 06:04:11;;;;;;;4.60;3.15;;;;;;;2.15;80.80;99326.55;1719230;82;21008;-74
2022/01/14 06:06:38;;;;;;;6.67;4.65;;;;;;;2.16;80.75;99312.59;1721065;83;21462;-75
2022/01/14 06:09:05;;;;;;;4.37;3.05;;;;;;;2.16;80.72;99314.73;1720922;83;21903;-75
2022/01/14 06:11:31;;;;;;;3.87;2.72;;;;;;;2.16;80.70;99301.70;1701853;83;20964;-75
2022/01/14 06:13:58;;;;;;;10.60;6.37;;;;;;;2.17;80.69;99295.56;1695665;83;21035;-73
2022/01/14 06:16:24;;;;;;;5.67;3.75;;;;;;;2.19;80.71;99301.51;1671151;84;21577;-74
2022/01/14 06:18:52;;;;;;;3.98;2.77;;;;;;;2.20;80.65;99288.84;1694314;84;20988;-76
2022/01/14 06:21:18;;;;;;;5.85;3.70;;;;;;;2.22;80.63;99275.72;1669625;86;21871;-74
2022/01/14 06:23:45;;;;;;;3.77;2.60;;;;;;;2.21;80.61;99270.98;1695179;83;21023;-76
2022/01/14 06:26:11;;;;;;;6.15;3.83;;;;;;;2.22;80.55;99267.91;1671055;85;20973;-75
2022/01/14 06:28:38;;;;;;;4.90;3.10;;;;;;;2.26;80.51;99263.73;1696000;83;20988;-74
2022/01/14 06:31:04;;;;;;;4.45;2.70;;;;;;;2.28;80.47;99274.05;1662620;85;21534;-75
2022/01/14 06:33:31;;;;;;;4.28;2.92;;;;;;;2.28;80.40;99259.25;1698783;83;21843;-75
2022/01/14 06:35:57;;;;;;;5.45;2.83;;;;;;;2.33;80.33;99255.53;1690476;84;21056;-75
2022/01/14 06:38:24;;;;;;;4.67;3.55;;;;;;;2.33;80.26;99255.06;1682763;84;21041;-76
2022/01/14 06:40:51;;;;;;;4.00;2.80;;;;;;;2.34;80.21;99244.17;1678255;84;20980;-74
2022/01/14 06:43:17;;;;;;;3.67;2.75;;;;;;;2.34;80.18;99241.57;1699728;83;21050;-75
2022/01/14 06:45:44;;;;;;;6.10;3.90;;;;;;;2.36;80.14;99227.97;1678824;84;21857;-75
2022/01/14 06:48:10;;;;;;;7.75;3.70;;;;;;;2.37;80.12;99223.13;1683936;84;21404;-75
2022/01/14 06:50:37;;;;;;;5.40;3.30;;;;;;;2.38;80.03;99220.41;1681511;83;21127;-75
2022/01/14 06:53:03;;;;;;;8.18;3.70;;;;;;;2.40;79.93;99217.70;1687102;84;21106;-75
2022/01/14 06:55:30;;;;;;;7.03;3.40;;;;;;;2.42;79.83;99219.77;1695585;84;21491;-75
2022/01/14 06:57:57;;;;;;;5.05;3.15;;;;;;;2.42;79.61;99213.25;1691606;83;21926;-75
2022/01/14 07:00:24;;;;;;;8.70;4.87;;;;;;;2.48;79.56;99199.34;1678815;84;21012;-75
2022/01/14 07:02:51;;;;;;;5.83;3.62;;;;;;;2.51;79.36;99193.95;1681025;84;21024;-75
2022/01/14 07:05:18;;;;;;;8.55;5.25;;;;;;;2.55;79.16;99193.27;1694412;83;21015;-75
2022/01/14 07:07:46;;;;;;;5.33;3.40;;;;;;;2.59;79.06;99198.64;1686443;83;21044;-74
2022/01/14 07:10:14;;;;;;;9.90;6.42;;;;;;;2.60;78.90;99201.61;1688084;83;21522;-74
2022/01/14 07:12:42;;;;;;;11.08;5.78;;;;;;;2.61;78.73;99196.80;1700732;83;21411;-76
2022/01/14 07:15:11;;;;;;;7.80;5.20;;;;;;;2.64;78.60;99178.33;1692378;84;20959;-75
2022/01/14 07:17:38;;;;;;;21.05;10.40;;;;;;;2.68;78.52;99169.83;1678129;84;21025;-75
2022/01/14 07:20:10;;;;;;;3.72;2.92;;;;;;;2.67;78.33;99162.48;1706412;83;21012;-76
2022/01/14 07:22:35;;;;;;;8.13;4.83;;;;;;;2.69;78.25;99155.39;1703824;84;22649;-76
2022/01/14 07:25:04;;;;;;;15.23;7.92;;;;;;;2.69;78.15;99146.26;1687593;82;20971;-75
2022/01/14 07:27:32;;;;;;;4.87;3.08;;;;;;;2.71;78.10;99152.70;1657676;84;21030;-74
2022/01/14 07:29:59;;;;;;;13.30;7.65;;;;;;;2.71;78.04;99152.23;1705197;82;20978;-74
2022/01/14 07:32:26;;;;;;;5.60;3.50;;;;;;;2.73;78.02;99142.53;1678066;85;21075;-79
2022/01/14 07:34:53;;;;;;;6.55;4.50;;;;;;;2.73;77.93;99119.53;1719891;82;21805;-77
2022/01/14 07:37:20;;;;;;;6.72;3.98;;;;;;;2.73;77.93;99127.36;1689473;83;20979;-75
2022/01/14 07:39:47;;;;;;;4.35;2.98;;;;;;;2.74;77.92;99120.73;1699978;84;21133;-76
2022/01/14 07:42:13;;;;;;;5.75;3.15;;;;;;;2.76;77.87;99124.53;1713992;82;21189;-75
2022/01/14 07:44:40;;;;;;;5.55;3.70;;;;;;;2.74;77.85;99106.86;1694127;83;20954;-77
2022/01/14 07:47:07;;;;;;;6.30;3.20;;;;;;;2.76;77.81;99101.90;1707012;82;22534;-75
2022/01/14 07:49:33;;;;;;;4.50;3.15;;;;;;;2.77;77.79;99080.57;1718155;83;21079;-75
2022/01/14 07:51:59;;;;;;;5.35;3.65;;;;;;;2.76;77.75;99075.83;1677849;84;20964;-74
2022/01/14 07:54:26;;;;;;;6.10;4.10;;;;;;;2.76;77.73;99059.35;1707997;84;21489;-75
2022/01/14 07:56:57;;;;;;;6.55;4.20;;;;;;;2.77;77.76;99061.84;1718399;83;20948;-75
2022/01/14 07:59:23;;;;;;;5.80;3.90;;;;;;;2.75;77.78;99055.91;1680084;84;21864;-76
2022/01/14 08:01:51;;;;;;;5.70;3.77;;;;;;;2.78;77.74;99052.25;1707763;83;21411;-77
2022/01/14 08:04:19;;;;;;;6.35;4.97;;;;;;;2.78;77.69;99049.17;1692497;84;20973;-76
2022/01/14 08:06:49;;;;;;;8.15;5.30;;;;;;;2.79;77.68;99034.36;1707608;82;21457;-76
2022/01/14 08:09:16;;;;;;;8.95;6.08;;;;;;;2.80;77.65;99026.46;1708090;82;21048;-73
2022/01/14 08:11:43;;;;;;;11.38;7.92;;;;;;;2.80;77.56;99024.33;1702006;84;21799;-73
2022/01/14 08:14:10;;;;;;;16.32;9.78;;;;;;;2.80;77.53;99024.33;1704219;82;21050;-74
2022/01/14 08:16:37;;;;;;;6.37;4.42;;;;;;;2.80;77.53;99019.11;1727919;82;20991;-74
2022/01/14 08:19:03;;;;;;;6.40;5.08;;;;;;;2.79;77.42;99036.50;1720362;83;20991;-76
2022/01/14 08:21:31;;;;;;;6.80;5.25;;;;;;;2.81;77.37;99035.95;1699984;84;21006;-75
2022/01/14 08:23:58;;;;;;;7.95;5.95;;;;;;;2.83;77.30;99021.02;1682753;85;21823;-75
2022/01/14 08:26:24;;;;;;;6.65;5.15;;;;;;;2.84;77.26;99017.94;1682625;85;21042;-76
2022/01/14 08:28:51;;;;;;;7.87;5.67;;;;;;;2.84;77.17;99017.47;1694196;84;21027;-76
2022/01/14 08:31:18;;;;;;;7.78;5.35;;;;;;;2.83;77.05;99014.50;1688656;83;21055;-75
2022/01/14 08:33:46;;;;;;;7.37;5.58;;;;;;;2.86;77.03;99035.61;1687342;84;21518;-73
2022/01/14 08:36:13;;;;;;;7.45;5.70;;;;;;;2.84;76.91;99005.73;1687432;84;21807;-75
2022/01/14 08:38:40;;;;;;;9.33;5.40;;;;;;;2.87;76.84;99009.90;1687142;84;21020;-74
2022/01/14 08:41:06;;;;;;;7.70;5.67;;;;;;;2.86;76.68;99016.05;1687752;84;21075;-79
2022/01/14 08:43:33;;;;;;;6.58;5.08;;;;;;;2.90;76.69;98977.11;1682421;84;21423;-74
2022/01/14 08:46:03;;;;;;;6.70;5.20;;;;;;;2.87;76.59;98983.34;1699898;83;20962;-75
2022/01/14 08:48:33;;;;;;;7.62;5.83;;;;;;;2.90;76.60;98995.84;1677610;83;22688;-75
2022/01/14 08:51:00;;;;;;;6.92;5.33;;;;;;;2.89;76.51;99001.48;1682506;85;21120;-72
2022/01/14 08:53:26;;;;;;;8.70;5.92;;;;;;;2.89;76.36;98987.15;1702235;84;21408;-74
2022/01/14 08:55:53;;;;;;;9.28;5.70;;;;;;;2.90;76.39;98969.75;1700191;83;20967;-74
2022/01/14 08:58:19;;;;;;;8.73;5.85;;;;;;;2.91;76.31;98980.08;1700400;83;20963;-75
2022/01/14 09:00:47;;;;;;;9.63;6.65;;;;;;;2.92;76.25;98965.27;1700848;83;24047;-77
2022/01/14 09:03:13;;;;;;;22.37;11.73;;;;;;;2.93;76.18;98951.27;1680190;84;21074;-77
2022/01/14 09:05:40;;;;;;;35.58;18.90;;;;;;;2.92;76.07;98939.18;1688416;83;21423;-74
2022/01/14 09:08:06;;;;;;;9.33;7.17;;;;;;;2.90;76.06;98933.25;1686740;83;21482;-75
2022/01/14 09:10:33;;;;;;;10.25;7.03;;;;;;;2.92;75.98;98940.48;1693370;84;20950;-77
2022/01/14 09:13:01;;;;;;;18.77;11.88;;;;;;;2.93;75.88;98931.72;1662749;85;40870;-78
2022/01/14 09:15:28;;;;;;;15.32;10.23;;;;;;;2.95;75.83;98920.22;1679409;85;20923;-78
2022/01/14 09:17:54;;;;;;;9.15;6.75;;;;;;;2.96;75.79;98913.23;1688288;84;21126;-80
2022/01/14 09:20:21;;;;;;;9.38;6.62;;;;;;;2.97;75.79;98905.77;1715702;83;21019;-78
2022/01/14 09:22:48;;;;;;;9.95;6.53;;;;;;;2.94;75.67;98897.70;1709899;82;20995;-77
2022/01/14 09:25:19;;;;;;;8.55;6.15;;;;;;;2.98;75.60;98885.26;1708684;82;21854;-77
2022/01/14 09:27:50;;;;;;;9.58;6.37;;;;;;;2.98;75.48;98871.74;1693686;83;21068;-75
2022/01/14 09:30:16;;;;;;;9.63;6.70;;;;;;;2.97;75.44;98877.08;1676870;84;21071;-78
2022/01/14 09:32:43;;;;;;;9.60;6.72;;;;;;;2.97;75.41;98884.42;1708164;82;20994;-72
2022/01/14 09:35:13;;;;;;;9.15;6.37;;;;;;;3.00;75.31;98869.05;1677623;85;21370;-73
2022/01/14 09:37:39;;;;;;;7.75;5.65;;;;;;;3.02;75.31;98877.59;1707884;83;21447;-73
2022/01/14 09:40:08;;;;;;;8.45;6.58;;;;;;;3.02;75.20;98858.86;1690697;84;21559;-74
2022/01/14 09:42:34;;;;;;;7.65;5.90;;;;;;;3.02;75.17;98858.86;1694631;82;21101;-74
2022/01/14 09:45:01;;;;;;;14.55;11.08;;;;;;;3.01;75.09;98863.72;1691092;83;21005;-75
2022/01/14 09:47:27;;;;;;;10.03;7.05;;;;;;;3.01;75.14;98855.89;1675949;85;21074;-74
2022/01/14 09:49:54;;;;;;;10.75;7.70;;;;;;;3.00;75.06;98839.06;1699483;82;21835;-79
2022/01/14 09:52:20;;;;;;;15.28;10.10;;;;;;;3.02;75.05;98861.47;1705749;84;21486;-74
2022/01/14 09:54:47;;;;;;;14.80;7.80;;;;;;;3.02;75.00;98860.16;1697930;82;21557;-75
2022/01/14 09:57:15;;;;;;;9.40;6.47;;;;;;;3.03;74.98;98861.00;1682115;82;21077;-75
2022/01/14 09:59:43;;;;;;;9.35;6.78;;;;;;;3.03;74.87;98861.00;1680675;84;21030;-74
2022/01/14 10:02:35;;;;;;;8.60;6.20;;;;;;;3.03;74.71;98834.91;1707240;82;22513;-75
2022/01/14 10:05:08;;;;;;;9.10;7.05;;;;;;;3.06;74.57;98830.30;1697968;83;20982;-72
2022/01/14 10:07:48;;;;;;;11.48;7.37;;;;;;;3.08;74.41;98843.22;1685308;83;21089;-75
2022/01/14 10:10:37;;;;;;;10.25;6.47;;;;;;;3.08;74.36;98825.79;1686129;84;21044;-72
2022/01/14 10:13:11;;;;;;;7.85;6.08;;;;;;;3.07;74.25;98818.08;1701277;84;21066;-73
2022/01/14 10:15:44;;;;;;;9.33;6.83;;;;;;;3.09;74.16;98811.83;1707083;84;22522;-71
2022/01/14 10:18:13;;;;;;;;;;;;;;;3.10;74.06;98799.14;1707129;82;21563;-77
2022/01/14 10:20:40;;;;;;;6.78;5.40;;;;;;;3.12;74.00;98792.50;1697102;84;20160;-76
2022/01/14 10:23:06;;;;;;;8.98;6.35;;;;;;;3.10;73.84;98795.70;1697361;84;21079;-75
2022/01/14 10:25:33;;;;;;;11.03;8.13;;;;;;;3.13;73.75;98773.30;1696821;84;20976;-76
2022/01/14 10:27:59;;;;;;;9.05;6.22;;;;;;;3.16;73.71;98771.75;1712062;83;22468;-76
2022/01/14 10:30:34;;;;;;;7.58;6.08;;;;;;;3.15;73.62;98757.88;1688563;84;21016;-77
2022/01/14 10:33:05;;;;;;;8.45;6.53;;;;;;;3.18;73.57;98742.46;1643464;84;20996;-76
2022/01/14 10:35:41;;;;;;;7.85;5.87;;;;;;;3.20;73.50;98735.85;1697516;84;21084;-77
2022/01/14 10:38:10;;;;;;;13.95;9.98;;;;;;;3.21;73.37;98733.13;1717847;83;21503;-77
2022/01/14 10:40:44;;;;;;;12.55;8.20;;;;;;;3.23;73.30;98715.56;1705178;83;21493;-77
2022/01/14 10:43:12;;;;;;;;;;;;;;;3.26;73.21;98711.89;1671582;86;21130;-76
2022/01/14 10:45:39;;;;;;;7.70;5.03;;;;;;;3.27;73.04;98695.28;1673675;84;20144;-76
2022/01/14 10:48:08;;;;;;;6.67;4.90;;;;;;;3.26;72.94;98685.80;1701254;84;21007;-76
2022/01/14 10:50:59;;;;;;;6.25;5.00;;;;;;;3.29;72.77;98646.44;1705303;84;21067;-74
2022/01/14 10:53:30;;;;;;;7.45;5.50;;;;;;;3.33;72.76;98666.95;1697139;84;21875;-71
2022/01/14 10:56:07;;;;;;;10.98;7.15;;;;;;;3.35;72.60;98673.34;1697385;83;21015;-74
2022/01/14 10:58:41;;;;;;;27.77;17.67;;;;;;;3.35;72.42;98647.25;1697261;84;20976;-74
2022/01/14 11:01:14;;;;;;;7.83;5.00;;;;;;;3.38;72.39;98659.61;1704497;83;21501;-73
2022/01/14 11:03:57;;;;;;;8.68;6.78;;;;;;;3.39;72.30;98656.05;1696442;84;20960;-74
2022/01/14 11:06:28;;;;;;;7.45;4.22;;;;;;;3.40;72.25;98657.70;1690068;84;21856;-72
2022/01/14 11:09:07;;;;;;;5.72;3.52;;;;;;;3.40;72.21;98620.34;1697276;84;21060;-74
2022/01/14 11:11:38;;;;;;;6.20;4.92;;;;;;;3.41;72.13;98613.70;1704326;83;21526;-74
2022/01/14 11:14:06;;;;;;;6.92;4.65;;;;;;;3.41;72.09;98636.35;1669584;85;21070;-75
2022/01/14 11:16:33;;;;;;;5.30;4.30;;;;;;;3.42;72.18;98622.34;1698321;83;21118;-75
2022/01/14 11:19:01;;;;;;;6.00;4.30;;;;;;;3.45;72.10;98604.66;1679307;84;21853;-75
2022/01/14 11:24:26;;;;;;;5.78;4.08;;;;;;;3.47;71.99;98612.84;1692124;84;21055;-76
2022/01/14 11:26:57;;;;;;;5.10;4.28;;;;;;;3.49;71.94;98613.58;1670455;84;21136;-75
2022/01/14 11:29:25;;;;;;;7.78;5.00;;;;;;;3.48;71.94;98598.39;1692144;84;21053;-78
2022/01/14 11:31:58;;;;;;;8.25;5.78;;;;;;;3.50;71.93;98607.41;1629892;83;21813;-71
2022/01/14 11:34:35;;;;;;;9.30;6.05;;;;;;;3.48;71.93;98621.88;1690986;83;21527;-73
2022/01/14 11:37:05;;;;;;;5.97;4.72;;;;;;;3.49;71.97;98609.66;1698202;82;21532;-72
2022/01/14 11:39:36;;;;;;;5.55;4.20;;;;;;;3.51;72.04;98602.53;1642304;86;21038;-73
2022/01/14 11:42:13;;;;;;;4.83;3.50;;;;;;;3.51;72.11;98602.06;1656254;85;21019;-75
2022/01/14 11:45:00;;;;;;;5.75;3.70;;;;;;;3.53;72.10;98593.63;1644101;85;21865;-74
2022/01/14 11:47:38;;;;;;;6.42;4.55;;;;;;;3.51;72.07;98569.91;1624478;86;20967;-74
2022/01/14 11:49:59;;;;;;;6.15;4.45;;;;;;;3.54;72.10;98571.79;1657553;84;21453;-74
2022/01/14 11:52:37;;;;;;;6.65;4.35;;;;;;;3.53;72.13;98555.78;1659027;85;21010;-73
2022/01/14 11:55:25;;;;;;;4.80;3.92;;;;;;;3.55;72.11;98549.12;1657118;85;21062;-74
2022/01/14 11:57:55;;;;;;;4.47;3.80;;;;;;;3.54;72.02;98533.94;1648829;86;21663;-76
2022/01/14 12:00:43;;;;;;;5.55;3.65;;;;;;;3.58;71.99;98522.80;1652873;85;21141;-74
2022/01/14 12:03:26;;;;;;;5.30;3.85;;;;;;;3.60;71.81;98501.31;1634974;85;21057;-76
2022/01/14 12:06:07;;;;;;;5.42;3.37;;;;;;;3.65;71.76;98492.61;1660215;85;21125;-75
2022/01/14 12:08:35;;;;;;;5.15;3.50;;;;;;;3.69;71.65;98488.81;1660309;85;21113;-74
2022/01/14 12:11:11;;;;;;;4.85;3.80;;;;;;;3.72;71.44;98471.59;1660173;86;21911;-75
2022/01/14 12:13:55;;;;;;;4.85;3.37;;;;;;;3.75;71.29;98456.97;1620275;86;20993;-75
2022/01/14 12:19:03;;;;;;;4.78;3.00;;;;;;;3.88;70.91;98435.91;1650857;84;21188;-74